Time;durP1;ratioP1;P1;durP2;ratioP2;P2;SDS_P1;SDS_P2;PMS_P1;PMS_P2;Temp;Humidity;BMP_temperature;BMP_pressure;BME280_temperature;BME280_humidity;BME280_pressure;Samples;Min_cycle;Max_cycle;Signal;HPM_P1;HPM_P2
2024/01/19 00:01:04;;;;;;;;;;;;;;;16.60;46.48;99521.84;5057690;28;1238;-58
2024/01/19 00:03:30;;;;;;;;;;;;;;;16.01;48.01;99518.81;5057200;28;1887;-58
2024/01/19 00:05:55;;;;;;;;;;;;;;;15.77;48.58;99521.63;5056907;28;1040;-58
2024/01/19 00:08:21;;;;;;;;;;;;;;;15.49;49.24;99513.31;5057494;28;1430;-58
2024/01/19 00:10:46;;;;;;;;;;;;;;;15.40;49.55;99516.72;5057396;28;1120;-58
2024/01/19 00:13:12;;;;;;;;;;;;;;;16.95;45.65;99508.56;5057508;28;1142;-58
2024/01/19 00:15:37;;;;;;;;;;;;;;;17.13;45.17;99508.75;5056912;28;1191;-60
2024/01/19 00:18:03;;;;;;;;;;;;;;;16.19;47.33;99515.19;5057577;28;1147;-61
2024/01/19 00:20:28;;;;;;;;;;;;;;;15.84;48.22;99513.91;5057150;28;1044;-60
2024/01/19 00:22:54;;;;;;;;;;;;;;;15.63;48.94;99514.19;5057095;28;1902;-59
2024/01/19 00:25:19;;;;;;;;;;;;;;;15.45;49.38;99506.78;5056881;28;1127;-60
2024/01/19 00:27:46;;;;;;;;;;;;;;;15.86;48.48;99512.44;5056789;28;1012;-60
2024/01/19 00:30:11;;;;;;;;;;;;;;;17.30;44.95;99516.34;5056453;28;1068;-59
2024/01/19 00:32:37;;;;;;;;;;;;;;;16.90;45.57;99505.91;5057202;28;1132;-58
2024/01/19 00:35:02;;;;;;;;;;;;;;;16.13;47.68;99512.84;5056952;28;1036;-60
2024/01/19 00:37:28;;;;;;;;;;;;;;;15.78;48.78;99512.31;5056398;28;1044;-60
2024/01/19 00:39:53;;;;;;;;;;;;;;;15.57;49.14;99518.09;5056103;28;1111;-60
2024/01/19 00:42:19;;;;;;;;;;;;;;;15.49;49.47;99525.06;5056976;28;1064;-60
2024/01/19 00:44:44;;;;;;;;;;;;;;;16.90;45.98;99523.22;5056522;28;1983;-60
2024/01/19 00:47:10;;;;;;;;;;;;;;;17.30;44.66;99521.81;5056704;28;1072;-60
2024/01/19 00:49:35;;;;;;;;;;;;;;;16.26;47.28;99525.78;5056645;28;1055;-59
2024/01/19 00:52:01;;;;;;;;;;;;;;;15.89;48.48;99522.84;5055709;28;1139;-60
2024/01/19 00:54:26;;;;;;;;;;;;;;;15.71;48.67;99520.91;5056512;28;1067;-59
2024/01/19 00:56:52;;;;;;;;;;;;;;;15.49;49.27;99518.78;5056630;28;1211;-60
2024/01/19 00:59:17;;;;;;;;;;;;;;;16.11;47.90;99528.78;5056414;28;1036;-59
2024/01/19 01:01:44;;;;;;;;;;;;;;;17.41;44.70;99525.97;5056892;28;1044;-59
2024/01/19 01:04:09;;;;;;;;;;;;;;;16.63;46.33;99523.97;5053818;28;1909;-59
2024/01/19 01:06:35;;;;;;;;;;;;;;;16.04;48.05;99519.00;5055470;28;1055;-60
2024/01/19 01:09:00;;;;;;;;;;;;;;;15.72;48.95;99533.50;5056697;28;1076;-60
2024/01/19 01:11:27;;;;;;;;;;;;;;;15.59;49.16;99518.63;5056183;28;1162;-58
2024/01/19 01:13:53;;;;;;;;;;;;;;;15.45;49.79;99520.50;5055945;28;1075;-58
2024/01/19 01:16:18;;;;;;;;;;;;;;;16.99;45.81;99517.81;5057870;28;1142;-58
2024/01/19 01:18:44;;;;;;;;;;;;;;;16.99;45.60;99520.56;5056319;28;1020;-58
2024/01/19 01:21:09;;;;;;;;;;;;;;;16.14;47.75;99528.19;5055729;28;1309;-58
2024/01/19 01:23:34;;;;;;;;;;;;;;;15.83;48.69;99521.28;5056233;28;1965;-58
2024/01/19 01:26:00;;;;;;;;;;;;;;;15.56;49.41;99524.72;5056203;28;1163;-58
2024/01/19 01:28:25;;;;;;;;;;;;;;;15.40;49.82;99530.41;5055502;28;1116;-58
2024/01/19 01:30:51;;;;;;;;;;;;;;;15.41;49.86;99533.97;5056514;28;1078;-58
2024/01/19 01:33:16;;;;;;;;;;;;;;;16.92;46.05;99537.44;5056228;28;1032;-58
2024/01/19 01:35:42;;;;;;;;;;;;;;;17.25;45.03;99530.97;5055848;28;1119;-58
2024/01/19 01:38:07;;;;;;;;;;;;;;;16.29;47.44;99533.41;5055661;28;1103;-59
2024/01/19 01:40:33;;;;;;;;;;;;;;;15.85;48.42;99531.94;5056235;28;1214;-59
2024/01/19 01:43:02;;;;;;;;;;;;;;;15.65;49.34;99528.38;5056158;28;1907;-60
2024/01/19 01:45:28;;;;;;;;;;;;;;;15.53;49.43;99525.31;5056151;28;1004;-58
2024/01/19 01:47:53;;;;;;;;;;;;;;;17.00;46.02;99527.69;5055933;28;1118;-59
2024/01/19 01:50:19;;;;;;;;;;;;;;;17.01;45.55;99529.31;5055868;28;1162;-59
2024/01/19 01:52:45;;;;;;;;;;;;;;;16.18;48.00;99531.97;5055771;28;1079;-58
2024/01/19 01:55:10;;;;;;;;;;;;;;;15.82;48.60;99527.91;5055811;28;1083;-60
2024/01/19 01:57:36;;;;;;;;;;;;;;;15.60;49.06;99525.75;5055675;28;1042;-60
2024/01/19 02:00:02;;;;;;;;;;;;;;;15.54;49.54;99518.69;5055687;28;1163;-60
2024/01/19 02:02:29;;;;;;;;;;;;;;;17.11;45.88;99522.78;5055651;28;1185;-60
2024/01/19 02:04:55;;;;;;;;;;;;;;;16.92;45.87;99520.97;5054959;28;1972;-60
2024/01/19 02:07:20;;;;;;;;;;;;;;;16.12;47.86;99535.88;5055661;28;1075;-60
2024/01/19 02:09:46;;;;;;;;;;;;;;;15.86;48.68;99534.38;5055623;28;1091;-60
2024/01/19 02:12:12;;;;;;;;;;;;;;;15.56;49.55;99530.19;5056002;28;1250;-58
2024/01/19 02:14:37;;;;;;;;;;;;;;;15.42;49.84;99530.13;5056189;28;1163;-60
2024/01/19 02:17:03;;;;;;;;;;;;;;;16.58;47.16;99537.81;5055857;28;1095;-58
2024/01/19 02:19:29;;;;;;;;;;;;;;;17.43;44.62;99537.44;5055202;28;1098;-61
2024/01/19 02:21:54;;;;;;;;;;;;;;;16.39;47.22;99535.94;5055754;28;1156;-61
2024/01/19 02:24:20;;;;;;;;;;;;;;;15.94;48.32;99543.88;5059232;28;1910;-60
2024/01/19 02:26:45;;;;;;;;;;;;;;;15.65;49.23;99539.34;5041534;28;1088;-58
2024/01/19 02:29:11;;;;;;;;;;;;;;;15.46;49.80;99546.75;5058867;28;1128;-60
2024/01/19 02:31:36;;;;;;;;;;;;;;;16.11;48.09;99556.22;5059227;28;1491;-60
2024/01/19 02:34:02;;;;;;;;;;;;;;;17.42;44.77;99557.84;5058698;28;1162;-60
2024/01/19 02:36:27;;;;;;;;;;;;;;;16.49;47.05;99558.84;5059630;28;1121;-60
2024/01/19 02:38:53;;;;;;;;;;;;;;;15.97;48.21;99556.97;5059462;28;1158;-60
2024/01/19 02:41:18;;;;;;;;;;;;;;;15.72;49.13;99560.91;5058729;28;1171;-59
2024/01/19 02:43:44;;;;;;;;;;;;;;;15.50;49.69;99558.75;5058778;28;1897;-60
2024/01/19 02:46:10;;;;;;;;;;;;;;;16.51;47.28;99564.81;5059159;28;1012;-60
2024/01/19 02:48:36;;;;;;;;;;;;;;;17.52;44.47;99562.28;5045570;28;1016;-57
2024/01/19 02:51:01;;;;;;;;;;;;;;;16.36;47.39;99565.94;5058071;28;1063;-58
2024/01/19 02:53:27;;;;;;;;;;;;;;;15.90;48.62;99551.06;5051737;28;1305;-59
2024/01/19 02:55:52;;;;;;;;;;;;;;;15.65;49.25;99555.78;5059082;28;1139;-59
2024/01/19 02:58:18;;;;;;;;;;;;;;;15.50;49.61;99558.75;5058422;28;1079;-58
2024/01/19 03:00:44;;;;;;;;;;;;;;;16.21;47.91;99564.25;5058665;28;1012;-58
2024/01/19 03:03:09;;;;;;;;;;;;;;;17.48;44.76;99564.03;5058405;28;1979;-59
2024/01/19 03:05:35;;;;;;;;;;;;;;;16.72;46.20;99563.34;5058325;28;1076;-58
2024/01/19 03:08:00;;;;;;;;;;;;;;;16.00;48.34;99558.31;5058793;28;1051;-58
2024/01/19 03:10:26;;;;;;;;;;;;;;;15.74;48.93;99559.50;5040261;28;1079;-58
2024/01/19 03:12:51;;;;;;;;;;;;;;;15.54;49.36;99562.53;5058327;28;1147;-58
2024/01/19 03:15:17;;;;;;;;;;;;;;;15.81;49.16;99563.81;5058402;28;1128;-59
2024/01/19 03:17:42;;;;;;;;;;;;;;;17.28;45.17;99564.16;5058285;28;1131;-58
2024/01/19 03:20:08;;;;;;;;;;;;;;;16.80;46.23;99564.53;5058550;28;1211;-58
2024/01/19 03:22:34;;;;;;;;;;;;;;;16.17;47.92;99568.72;5058112;28;1138;-58
2024/01/19 03:24:59;;;;;;;;;;;;;;;15.82;48.88;99570.94;5058605;28;1918;-58
2024/01/19 03:27:25;;;;;;;;;;;;;;;15.49;49.32;99555.22;5058472;28;1336;-58
2024/01/19 03:29:50;;;;;;;;;;;;;;;17.08;45.74;99578.31;5058439;28;1075;-58
2024/01/19 03:32:16;;;;;;;;;;;;;;;17.12;45.29;99578.53;5058052;28;1040;-58
2024/01/19 03:34:41;;;;;;;;;;;;;;;16.18;47.87;99578.59;5057807;28;1075;-58
2024/01/19 03:37:07;;;;;;;;;;;;;;;15.77;48.85;99576.44;5058288;28;1135;-58
2024/01/19 03:39:33;;;;;;;;;;;;;;;15.60;49.11;99580.53;5056635;28;1412;-58
2024/01/19 03:41:58;;;;;;;;;;;;;;;16.30;47.66;99587.16;5063782;28;1681;-59
2024/01/19 03:44:24;;;;;;;;;;;;;;;17.54;44.59;99584.75;5058032;28;1910;-59
2024/01/19 03:46:50;;;;;;;;;;;;;;;16.51;47.03;99592.25;5050575;28;1107;-59
2024/01/19 03:49:15;;;;;;;;;;;;;;;15.99;48.35;99587.66;5057966;28;1111;-59
2024/01/19 03:52:19;;;;;;;;;;;;;;;15.70;48.92;99588.59;5057660;28;1052;-60
2024/01/19 03:54:45;;;;;;;;;;;;;;;15.49;49.78;99600.97;4957065;28;1138;-60
2024/01/19 03:57:10;;;;;;;;;;;;;;;16.88;46.15;99606.97;4957833;29;1399;-57
2024/01/19 03:59:36;;;;;;;;;;;;;;;17.42;44.93;99599.84;5003576;28;1188;-60
2024/01/19 04:02:01;;;;;;;;;;;;;;;16.34;47.35;99604.66;5046572;28;1349;-61
2024/01/19 04:04:27;;;;;;;;;;;;;;;15.94;48.30;99606.94;5053134;28;1914;-57
2024/01/19 04:06:52;;;;;;;;;;;;;;;15.69;48.99;99608.91;5057402;28;1065;-58
2024/01/19 04:09:18;;;;;;;;;;;;;;;15.62;49.65;99616.66;5057271;28;1203;-57
2024/01/19 04:11:44;;;;;;;;;;;;;;;17.21;45.65;99620.66;5057594;28;1072;-58
2024/01/19 04:14:10;;;;;;;;;;;;;;;16.89;45.95;99623.16;5057178;28;1032;-53
2024/01/19 04:16:35;;;;;;;;;;;;;;;16.18;47.59;99622.47;5057260;28;1118;-51
2024/01/19 04:19:02;;;;;;;;;;;;;;;15.87;48.74;99622.94;5057133;28;920;-53
2024/01/19 04:21:27;;;;;;;;;;;;;;;15.66;49.41;99628.66;5053269;28;1223;-53
2024/01/19 04:23:53;;;;;;;;;;;;;;;15.81;48.99;99630.44;5043388;28;1913;-51
2024/01/19 04:26:18;;;;;;;;;;;;;;;17.34;44.99;99621.75;5056605;28;1364;-49
2024/01/19 04:28:44;;;;;;;;;;;;;;;16.76;46.47;99638.47;5057205;28;1115;-51
2024/01/19 04:31:09;;;;;;;;;;;;;;;16.02;48.39;99627.34;5054864;28;1112;-52
2024/01/19 04:33:35;;;;;;;;;;;;;;;15.79;48.64;99626.31;5051013;28;1206;-50
2024/01/19 04:36:00;;;;;;;;;;;;;;;15.57;49.47;99623.03;5050137;28;1325;-51
2024/01/19 04:38:26;;;;;;;;;;;;;;;15.55;49.63;99632.66;5041474;28;1520;-54
2024/01/19 04:40:51;;;;;;;;;;;;;;;17.14;45.51;99628.47;5053969;28;976;-57
2024/01/19 04:43:17;;;;;;;;;;;;;;;17.04;45.67;99632.22;5056265;28;1893;-48
2024/01/19 04:45:43;;;;;;;;;;;;;;;16.26;47.62;99630.00;5056127;28;1103;-49
2024/01/19 04:48:09;;;;;;;;;;;;;;;15.85;48.51;99631.47;5056735;28;1123;-51
2024/01/19 04:50:34;;;;;;;;;;;;;;;15.61;49.33;99636.16;5057035;28;1229;-50
2024/01/19 04:53:00;;;;;;;;;;;;;;;15.44;49.65;99636.66;5056819;28;1043;-54
2024/01/19 04:55:25;;;;;;;;;;;;;;;16.73;46.59;99641.00;5056053;28;901;-53
2024/01/19 04:57:51;;;;;;;;;;;;;;;17.39;45.19;99635.38;5056383;28;1148;-52
2024/01/19 05:00:16;;;;;;;;;;;;;;;16.34;47.36;99644.97;5056586;28;981;-53
2024/01/19 05:02:43;;;;;;;;;;;;;;;15.87;48.62;99650.34;5056441;28;1227;-53
2024/01/19 05:05:08;;;;;;;;;;;;;;;15.68;49.37;99647.56;5056697;28;1894;-48
2024/01/19 05:07:35;;;;;;;;;;;;;;;15.51;49.53;99642.59;5055892;28;1024;-55
2024/01/19 05:10:01;;;;;;;;;;;;;;;16.07;48.72;99644.56;5055819;28;1183;-52
2024/01/19 05:12:26;;;;;;;;;;;;;;;17.37;45.42;99652.16;5055749;28;1215;-48
2024/01/19 05:14:52;;;;;;;;;;;;;;;16.84;46.45;99660.84;5055580;28;1222;-50
2024/01/19 05:17:18;;;;;;;;;;;;;;;16.16;47.97;99655.69;5056365;28;1151;-51
2024/01/19 05:19:43;;;;;;;;;;;;;;;15.95;48.90;99665.31;5055834;28;1501;-53
2024/01/19 05:22:09;;;;;;;;;;;;;;;17.75;44.25;99671.19;5056517;28;1161;-47
2024/01/19 05:24:35;;;;;;;;;;;;;;;16.30;47.34;99669.44;5055755;28;1990;-50
2024/01/19 05:27:00;;;;;;;;;;;;;;;16.03;47.82;99681.94;5055850;28;1052;-49
2024/01/19 05:29:26;;;;;;;;;;;;;;;16.67;46.84;99683.41;5051680;28;1349;-48
2024/01/19 05:31:51;;;;;;;;;;;;;;;15.94;47.73;99683.69;5053376;28;1215;-50
2024/01/19 05:34:17;;;;;;;;;;;;;;;15.79;47.63;99689.34;5033786;28;1341;-50
2024/01/19 05:36:42;;;;;;;;;;;;;;;16.72;46.82;99692.34;5055992;28;1060;-54
2024/01/19 05:39:08;;;;;;;;;;;;;;;15.97;47.86;99696.81;5055175;28;1083;-46
2024/01/19 05:41:34;;;;;;;;;;;;;;;15.91;47.69;99696.06;5056176;28;1086;-47
2024/01/19 05:44:00;;;;;;;;;;;;;;;16.53;47.06;99699.81;5053551;28;1976;-50
2024/01/19 05:46:25;;;;;;;;;;;;;;;16.27;47.92;99702.13;5038195;28;1071;-49
2024/01/19 05:48:50;;;;;;;;;;;;;;;17.86;44.21;99702.00;5055709;28;968;-51
2024/01/19 05:51:16;;;;;;;;;;;;;;;16.62;47.05;99703.53;5055779;28;1132;-51
2024/01/19 05:53:42;;;;;;;;;;;;;;;16.15;47.41;99706.16;5056371;28;1076;-50
2024/01/19 05:56:07;;;;;;;;;;;;;;;15.85;47.35;99707.38;5054425;28;1033;-51
2024/01/19 05:58:33;;;;;;;;;;;;;;;16.86;46.91;99702.56;5042483;28;1375;-47
2024/01/19 06:01:00;;;;;;;;;;;;;;;17.01;46.54;99698.75;5043040;28;1317;-48
2024/01/19 06:03:25;;;;;;;;;;;;;;;16.30;47.44;99710.59;5027852;28;1981;-47
2024/01/19 06:05:51;;;;;;;;;;;;;;;16.04;47.10;99705.47;5049659;28;1345;-47
2024/01/19 06:08:16;;;;;;;;;;;;;;;17.05;46.39;99717.06;5043636;28;1091;-49
2024/01/19 06:10:42;;;;;;;;;;;;;;;16.23;47.81;99712.91;5043793;28;1305;-50
2024/01/19 06:13:08;;;;;;;;;;;;;;;16.51;47.61;99721.25;5043720;28;1376;-46
2024/01/19 06:15:35;;;;;;;;;;;;;;;16.85;46.83;99725.66;5048285;28;1337;-54
2024/01/19 06:18:01;;;;;;;;;;;;;;;16.25;47.61;99725.19;5043321;28;1355;-49
2024/01/19 06:20:26;;;;;;;;;;;;;;;16.97;46.87;99733.41;5052112;28;1049;-51
2024/01/19 06:22:52;;;;;;;;;;;;;;;16.33;47.61;99740.19;5042207;28;1415;-52
2024/01/19 06:25:17;;;;;;;;;;;;;;;17.64;45.02;99738.47;5047217;28;1909;-46
2024/01/19 06:27:43;;;;;;;;;;;;;;;17.68;44.69;99739.50;5044567;28;1305;-51
2024/01/19 06:30:09;;;;;;;;;;;;;;;16.61;47.12;99740.31;5055342;28;1310;-50
2024/01/19 06:32:34;;;;;;;;;;;;;;;16.32;46.78;99745.97;5058853;28;1061;-47
2024/01/19 06:35:00;;;;;;;;;;;;;;;16.12;46.71;99741.56;5059026;28;1071;-50
2024/01/19 06:37:25;;;;;;;;;;;;;;;16.41;46.92;99750.47;5058855;28;1051;-45
2024/01/19 06:39:51;;;;;;;;;;;;;;;16.74;47.12;99750.50;5054173;28;1368;-48
2024/01/19 06:42:16;;;;;;;;;;;;;;;16.23;47.17;99754.84;5058803;28;1160;-53
2024/01/19 06:44:42;;;;;;;;;;;;;;;16.26;47.45;99750.72;5058582;28;1980;-49
2024/01/19 06:47:08;;;;;;;;;;;;;;;17.13;46.37;99755.94;5058559;28;1170;-53
2024/01/19 06:49:33;;;;;;;;;;;;;;;16.66;47.51;99764.09;5057518;28;1043;-49
2024/01/19 06:51:59;;;;;;;;;;;;;;;18.22;43.98;99763.72;5057323;28;1152;-51
2024/01/19 06:54:25;;;;;;;;;;;;;;;17.25;46.04;99759.00;5055035;28;1277;-47
2024/01/19 06:56:50;;;;;;;;;;;;;;;16.63;46.97;99753.72;5057334;28;1433;-46
2024/01/19 06:59:16;;;;;;;;;;;;;;;16.37;47.02;99757.69;5058212;28;1112;-46
2024/01/19 07:01:41;;;;;;;;;;;;;;;16.21;46.64;99759.00;5057765;28;1184;-46
2024/01/19 07:04:07;;;;;;;;;;;;;;;16.12;46.27;99756.13;5058998;28;1969;-46
2024/01/19 07:06:33;;;;;;;;;;;;;;;16.56;46.73;99760.41;5058172;28;1116;-46
2024/01/19 07:08:59;;;;;;;;;;;;;;;16.60;47.37;99763.38;5057112;28;1063;-46
2024/01/19 07:11:24;;;;;;;;;;;;;;;16.19;47.56;99761.25;5058359;28;1047;-48
2024/01/19 07:13:50;;;;;;;;;;;;;;;15.98;47.08;99761.50;5058406;28;1084;-49
2024/01/19 07:16:15;;;;;;;;;;;;;;;17.06;46.63;99759.88;5058104;28;1146;-47
2024/01/19 07:18:41;;;;;;;;;;;;;;;16.94;47.02;99759.53;5057690;28;1103;-48
2024/01/19 07:21:06;;;;;;;;;;;;;;;16.29;47.85;99752.06;5058084;28;1206;-50
2024/01/19 07:23:32;;;;;;;;;;;;;;;16.03;47.58;99753.22;5058177;28;1969;-46
2024/01/19 07:25:57;;;;;;;;;;;;;;;15.93;47.03;99758.00;5057861;28;1072;-46
2024/01/19 07:28:23;;;;;;;;;;;;;;;17.43;46.23;99754.56;5057889;28;1048;-46
2024/01/19 07:30:49;;;;;;;;;;;;;;;16.49;48.04;99754.47;5057653;28;1076;-45
2024/01/19 07:33:14;;;;;;;;;;;;;;;16.15;47.80;99762.94;5057716;28;1238;-47
2024/01/19 07:35:40;;;;;;;;;;;;;;;16.00;47.15;99758.47;5057842;28;1141;-50
2024/01/19 07:38:05;;;;;;;;;;;;;;;16.50;47.45;99766.28;5057713;28;1219;-48
2024/01/19 07:40:32;;;;;;;;;;;;;;;16.56;47.82;99765.06;5057187;28;1130;-51
2024/01/19 07:42:58;;;;;;;;;;;;;;;16.05;48.17;99767.44;5057653;28;1083;-49
2024/01/19 07:45:23;;;;;;;;;;;;;;;15.94;47.35;99765.13;5057326;28;1988;-50
2024/01/19 07:47:49;;;;;;;;;;;;;;;17.03;46.96;99771.47;5057647;28;1043;-52
2024/01/19 07:50:14;;;;;;;;;;;;;;;16.32;48.20;99771.47;5057343;28;1044;-51
2024/01/19 07:52:40;;;;;;;;;;;;;;;16.03;47.99;99783.38;5057488;28;1080;-50
2024/01/19 07:55:05;;;;;;;;;;;;;;;16.56;47.84;99781.53;5056944;28;1035;-47
2024/01/19 07:57:31;;;;;;;;;;;;;;;17.01;46.84;99781.13;5057659;28;1181;-47
2024/01/19 07:59:56;;;;;;;;;;;;;;;16.25;48.26;99777.31;5057191;28;1114;-47
2024/01/19 08:02:22;;;;;;;;;;;;;;;16.01;47.80;99787.53;5056976;28;1064;-47
2024/01/19 08:04:47;;;;;;;;;;;;;;;16.91;47.18;99787.63;5057612;28;1913;-50
2024/01/19 08:07:13;;;;;;;;;;;;;;;16.58;47.91;99788.38;5056747;28;1095;-51
2024/01/19 08:09:38;;;;;;;;;;;;;;;16.20;47.92;99785.63;5055449;28;1095;-47
2024/01/19 08:12:04;;;;;;;;;;;;;;;15.96;47.65;99793.06;5056295;28;1207;-53
2024/01/19 08:14:30;;;;;;;;;;;;;;;15.86;47.20;99802.22;5056107;28;1115;-49
2024/01/19 08:16:55;;;;;;;;;;;;;;;16.36;47.69;99805.41;5052175;28;1120;-48
2024/01/19 08:19:21;;;;;;;;;;;;;;;16.43;47.86;99797.63;5056791;28;1095;-51
2024/01/19 08:21:46;;;;;;;;;;;;;;;16.04;47.90;99815.16;5055969;28;1071;-51
2024/01/19 08:24:12;;;;;;;;;;;;;;;17.08;47.08;99815.34;5056980;28;1905;-50
2024/01/19 08:26:38;;;;;;;;;;;;;;;16.29;48.12;99807.72;5056800;28;1214;-50
2024/01/19 08:29:03;;;;;;;;;;;;;;;16.05;47.90;99816.78;5056735;28;1071;-50
2024/01/19 08:31:30;;;;;;;;;;;;;;;16.04;47.68;99817.91;5056350;28;1103;-51
2024/01/19 08:33:58;;;;;;;;;;;;;;;16.92;47.40;99813.97;5056819;28;1158;-54
2024/01/19 08:36:24;;;;;;;;;;;;;;;16.31;48.08;99810.97;5056531;28;1140;-48
2024/01/19 08:38:53;;;;;;;;;;;;;;;15.91;48.03;99810.41;5057066;28;1179;-49
2024/01/19 08:41:18;;;;;;;;;;;;;;;16.58;47.75;99815.00;5056466;28;1120;-52
2024/01/19 08:43:44;;;;;;;;;;;;;;;16.47;48.12;99802.56;5056316;28;1905;-51
2024/01/19 08:46:09;;;;;;;;;;;;;;;16.11;48.12;99816.75;5056215;28;1116;-48
2024/01/19 08:48:35;;;;;;;;;;;;;;;15.92;47.49;99812.00;5056088;28;1073;-46
2024/01/19 08:51:01;;;;;;;;;;;;;;;17.16;47.04;99793.81;5056119;28;1275;-49
2024/01/19 08:53:27;;;;;;;;;;;;;;;16.20;48.42;99807.56;5055626;28;1155;-49
2024/01/19 08:55:52;;;;;;;;;;;;;;;15.93;48.17;99804.63;5055764;28;1360;-50
2024/01/19 08:58:18;;;;;;;;;;;;;;;15.90;47.57;99793.13;5055780;28;1301;-53
2024/01/19 09:00:44;;;;;;;;;;;;;;;16.60;47.69;99799.03;5052951;28;1265;-52
2024/01/19 09:03:09;;;;;;;;;;;;;;;16.38;48.26;99796.88;5048570;28;1164;-51
2024/01/19 09:05:35;;;;;;;;;;;;;;;16.03;48.28;99793.53;5055660;28;1200;-47
2024/01/19 09:08:00;;;;;;;;;;;;;;;16.02;48.14;99806.44;5056168;28;1126;-46
2024/01/19 09:10:26;;;;;;;;;;;;;;;16.54;47.93;99800.25;5056127;28;1032;-47
2024/01/19 09:12:52;;;;;;;;;;;;;;;16.05;48.51;99792.13;5056027;28;1132;-50
2024/01/19 09:15:17;;;;;;;;;;;;;;;15.88;47.85;99787.13;5053891;28;1182;-51
2024/01/19 09:17:43;;;;;;;;;;;;;;;16.82;47.64;99790.19;5038073;28;1052;-48
2024/01/19 09:20:08;;;;;;;;;;;;;;;16.26;48.50;99800.09;5045848;28;1163;-51
2024/01/19 09:22:34;;;;;;;;;;;;;;;16.01;47.97;99799.31;5045220;28;1342;-48
2024/01/19 09:24:59;;;;;;;;;;;;;;;16.93;47.76;99796.38;5047652;28;1914;-52
2024/01/19 09:27:25;;;;;;;;;;;;;;;17.10;47.18;99793.88;5048418;28;1388;-50
2024/01/19 09:29:50;;;;;;;;;;;;;;;16.31;48.70;99794.50;5042497;28;1241;-48
2024/01/19 09:32:16;;;;;;;;;;;;;;;16.12;48.07;99796.41;5053174;28;1234;-52
2024/01/19 09:34:43;;;;;;;;;;;;;;;15.97;47.87;99792.78;5049892;28;1271;-49
2024/01/19 09:37:09;;;;;;;;;;;;;;;17.21;47.33;99793.72;5048351;28;1165;-49
2024/01/19 09:39:34;;;;;;;;;;;;;;;16.31;48.58;99777.25;5057328;28;1024;-49
2024/01/19 09:42:02;;;;;;;;;;;;;;;16.03;48.19;99797.09;5059335;28;1242;-47
2024/01/19 09:44:28;;;;;;;;;;;;;;;16.00;47.77;99792.16;5057778;28;1942;-46
2024/01/19 09:46:54;;;;;;;;;;;;;;;17.20;47.11;99784.66;5041328;28;1079;-47
2024/01/19 09:49:23;;;;;;;;;;;;;;;16.40;48.34;99787.25;5058867;28;1118;-46
2024/01/19 09:51:55;;;;;;;;;;;;;;;16.15;48.22;99782.13;5057039;28;1104;-48
2024/01/19 09:54:23;;;;;;;;;;;;;;;17.11;47.25;99780.97;5059617;28;1032;-44
2024/01/19 09:56:49;;;;;;;;;;;;;;;16.35;48.25;99792.81;5057855;28;1130;-49
2024/01/19 09:59:14;;;;;;;;;;;;;;;16.15;48.16;99787.63;5041758;28;1005;-46
2024/01/19 10:01:40;;;;;;;;;;;;;;;15.93;47.66;99779.94;5059700;28;1165;-49
2024/01/19 10:04:09;;;;;;;;;;;;;;;16.82;47.85;99806.69;5059805;28;1964;-47
2024/01/19 10:06:34;;;;;;;;;;;;;;;16.82;47.92;99801.19;5042367;28;1012;-48
2024/01/19 10:09:00;;;;;;;;;;;;;;;16.30;48.31;99790.16;5059253;28;1063;-49
2024/01/19 10:11:25;;;;;;;;;;;;;;;16.31;48.58;99786.28;5028758;28;1049;-48
2024/01/19 10:13:51;;;;;;;;;;;;;;;17.18;47.43;99788.81;5059462;28;1551;-47
2024/01/19 10:16:16;;;;;;;;;;;;;;;16.46;48.31;99782.50;5059478;28;1128;-48
2024/01/19 10:18:42;;;;;;;;;;;;;;;16.21;48.33;99791.91;5059602;28;1036;-46
2024/01/19 10:21:07;;;;;;;;;;;;;;;16.75;48.18;99784.28;5041423;28;1108;-54
2024/01/19 10:23:33;;;;;;;;;;;;;;;16.19;48.36;99789.47;5041215;28;1909;-55
2024/01/19 10:26:12;;;;;;;;;;;;;;;17.35;47.06;99788.22;5059449;28;1170;-55
2024/01/19 10:28:39;;;;;;;;;;;;;;;16.54;48.33;99783.78;5058934;28;1027;-49
2024/01/19 10:31:14;;;;;;;;;;;;;;;16.29;48.16;99791.25;5059072;28;1238;-48
2024/01/19 10:33:47;;;;;;;;;;;;;;;17.24;47.49;99795.84;5058594;28;1071;-52
2024/01/19 10:36:12;;;;;;;;;;;;;;;16.60;48.04;99790.81;5058339;28;1107;-46
2024/01/19 10:38:38;;;;;;;;;;;;;;;16.28;47.87;99786.06;5055571;28;1179;-49
2024/01/19 10:41:05;;;;;;;;;;;;;;;16.01;47.91;99777.38;5054128;28;1275;-50
2024/01/19 10:43:30;;;;;;;;;;;;;;;15.97;47.19;99781.00;5038138;28;1906;-47
2024/01/19 10:45:56;;;;;;;;;;;;;;;15.84;47.17;99790.75;5055122;28;1188;-53
2024/01/19 10:48:25;;;;;;;;;;;;;;;17.10;47.61;99795.81;5058283;28;1204;-54
2024/01/19 10:50:51;;;;;;;;;;;;;;;16.68;48.47;99798.38;5058331;28;1231;-51
2024/01/19 10:53:16;;;;;;;;;;;;;;;16.25;48.58;99798.44;5039998;28;1286;-50
2024/01/19 10:55:46;;;;;;;;;;;;;;;16.17;47.60;99799.09;5057478;28;1199;-54
2024/01/19 10:58:12;;;;;;;;;;;;;;;17.34;47.08;99794.88;5040313;28;1172;-47
2024/01/19 11:00:38;;;;;;;;;;;;;;;16.76;48.03;99797.69;5058829;28;1218;-51
2024/01/19 11:03:04;;;;;;;;;;;;;;;16.31;48.40;99797.25;5058271;28;1071;-48
2024/01/19 11:05:29;;;;;;;;;;;;;;;16.10;47.76;99802.19;5058192;28;1984;-53
2024/01/19 11:07:55;;;;;;;;;;;;;;;16.83;48.00;99797.34;5058240;28;1179;-47
2024/01/19 11:10:21;;;;;;;;;;;;;;;17.08;47.49;99798.88;5057975;28;1115;-47
2024/01/19 11:12:49;;;;;;;;;;;;;;;16.44;48.47;99795.72;5058035;28;1118;-49
2024/01/19 11:15:16;;;;;;;;;;;;;;;16.24;48.07;99800.38;5058369;28;1142;-50
2024/01/19 11:17:41;;;;;;;;;;;;;;;16.74;48.07;99801.84;5040115;28;1099;-47
2024/01/19 11:20:08;;;;;;;;;;;;;;;16.65;48.40;99798.97;5040631;28;1060;-51
2024/01/19 11:22:33;;;;;;;;;;;;;;;16.17;48.37;99797.19;5057708;28;908;-49
2024/01/19 11:25:02;;;;;;;;;;;;;;;16.28;48.17;99795.09;5040377;28;1906;-50
2024/01/19 11:27:30;;;;;;;;;;;;;;;16.64;48.11;99794.59;5039706;28;1103;-53
2024/01/19 11:30:00;;;;;;;;;;;;;;;16.21;48.42;99794.66;5037848;28;1216;-52
2024/01/19 11:32:25;;;;;;;;;;;;;;;16.06;47.86;99791.00;5044804;28;1140;-53
2024/01/19 11:34:51;;;;;;;;;;;;;;;17.08;47.55;99781.56;5057263;28;994;-51
2024/01/19 11:37:35;;;;;;;;;;;;;;;16.25;48.68;99777.31;5057495;28;1095;-57
2024/01/19 11:40:00;;;;;;;;;;;;;;;18.00;45.70;99789.22;5057999;28;1202;-56
2024/01/19 11:42:35;;;;;;;;;;;;;;;17.40;47.03;99788.97;5057983;28;1119;-57
2024/01/19 11:45:00;;;;;;;;;;;;;;;16.72;47.83;99784.88;5057784;28;1992;-57
2024/01/19 11:47:35;;;;;;;;;;;;;;;16.41;47.81;99779.84;5057391;28;1020;-48
2024/01/19 11:50:03;;;;;;;;;;;;;;;16.31;47.49;99786.28;5057861;28;1211;-54
2024/01/19 11:52:30;;;;;;;;;;;;;;;16.10;47.05;99788.47;5057660;28;1075;-50
2024/01/19 11:54:56;;;;;;;;;;;;;;;17.10;47.36;99780.16;5056069;28;1227;-55
2024/01/19 11:57:22;;;;;;;;;;;;;;;16.40;48.20;99779.03;5056673;28;1278;-58
2024/01/19 11:59:48;;;;;;;;;;;;;;;16.15;48.07;99779.41;5057385;28;1091;-56
2024/01/19 12:02:23;;;;;;;;;;;;;;;16.07;47.25;99786.34;5057107;28;1195;-52
2024/01/19 12:04:48;;;;;;;;;;;;;;;15.92;47.20;99776.38;5056662;28;1913;-55
2024/01/19 12:07:17;;;;;;;;;;;;;;;16.21;47.26;99776.25;5038584;28;1029;-52
2024/01/19 12:09:42;;;;;;;;;;;;;;;17.25;47.40;99787.31;5053643;28;1119;-53
2024/01/19 12:12:08;;;;;;;;;;;;;;;16.38;48.65;99775.78;5055393;28;1220;-52
2024/01/19 12:14:34;;;;;;;;;;;;;;;16.29;48.36;99769.31;5057203;28;1095;-54
2024/01/19 12:16:59;;;;;;;;;;;;;;;16.64;48.65;99775.38;5055869;28;1126;-52
2024/01/19 12:19:25;;;;;;;;;;;;;;;16.29;48.44;99774.81;5044403;28;1020;-48
2024/01/19 12:21:50;;;;;;;;;;;;;;;16.10;47.95;99777.50;5036543;28;1048;-48
2024/01/19 12:24:20;;;;;;;;;;;;;;;16.28;48.28;99786.06;5052202;28;1902;-48
2024/01/19 12:26:51;;;;;;;;;;;;;;;16.75;48.24;99790.56;5039531;28;1324;-50
2024/01/19 12:29:30;;;;;;;;;;;;;;;16.34;48.78;99779.38;5044959;28;1032;-54
2024/01/19 12:32:11;;;;;;;;;;;;;;;16.46;48.84;99784.44;5054757;28;1220;-50
2024/01/19 12:34:37;;;;;;;;;;;;;;;17.14;48.94;99793.28;5056484;28;1148;-53
2024/01/19 12:37:03;;;;;;;;;;;;;;;16.57;49.11;99786.72;5056451;28;1342;-52
2024/01/19 12:39:29;;;;;;;;;;;;;;;16.40;48.42;99795.50;5056107;28;1373;-50
2024/01/19 12:42:01;;;;;;;;;;;;;;;17.71;47.77;99795.81;5056291;28;1251;-50
2024/01/19 12:44:26;;;;;;;;;;;;;;;16.71;49.30;99789.53;5053340;28;1910;-56
2024/01/19 12:46:52;;;;;;;;;;;;;;;16.49;48.51;99792.09;5056399;28;1412;-48
2024/01/19 12:49:17;;;;;;;;;;;;;;;17.02;48.59;99802.81;5035005;28;1349;-43
2024/01/19 12:51:44;;;;;;;;;;;;;;;16.77;48.94;99804.84;5054058;28;1207;-48